Morgan Ray — WDF6085 — position and weather

sailwx.info

Track history (hours):
 
Tides and Currents Weather Stations Pressure Air Temp Water Temp Dewpoint Dewpoint Depression Visibility Wind Speed Wind Dir Waves Ship Positions

Morgan Ray

Owner: Daigle Towing Service LLC., Belle Chasse, LA. More information available from US FCC via Universal Licensing System and Coast Guard Vessel Documentation Center.

Last reported at 2016-Jul-24 16:22 UTC. Time now 2016-Jul-24 22:24 UTC.
Position N 29°36' W 090°58'.

Length 20 m; draft 2 m.

Type: Tug. MMSI: 367470470.

Date/timePositionNaut miles runAvg speedWind from/ knotsBaromVisibWave heightAir tempDewpointWater temp
2016-Jul-24 16:22N 29°36' W 090°58'8 6.5
2016-Jul-24 15:05N 29°32' W 090°50'4 6.8
2016-Jul-24 14:33N 29°32' W 090°46'5 4.6
2016-Jul-24 13:34N 29°36' W 090°43'1 1.3
2016-Jul-24 12:33N 29°37' W 090°41'5 5.3
2016-Jul-24 11:33N 29°35' W 090°36'3 0.1
2016-Jul-23 08:04N 29°34' W 090°33'3 5.9
2016-Jul-23 07:31N 29°35' W 090°36'5 5.7
2016-Jul-23 06:33N 29°37' W 090°42'6 3.1
2016-Jul-23 04:33N 29°32' W 090°47'10 7.2
2016-Jul-23 03:11N 29°35' W 090°58'59 5.4
2016-Jul-22 16:17N 29°49' W 092°04'4 6.0
2016-Jul-22 15:33N 29°47' W 092°08'5 4.6
2016-Jul-22 14:33N 29°48' W 092°14'6 6.0
2016-Jul-22 13:32N 29°51' W 092°20'37 5.8
2016-Jul-22 07:13N 29°56' W 093°02'14 5.2
2016-Jul-22 04:33N 30°03' W 093°16'3 3.2
2016-Jul-22 03:33N 30°05' W 093°18'1 0.9
2016-Jul-22 02:34N 30°06' W 093°18'0 0.3
2016-Jul-22 01:34N 30°06' W 093°18'1 1.3
2016-Jul-22 00:34N 30°06' W 093°17'0 0.0
2016-Jul-21 23:33N 30°06' W 093°17'0 0.0
2016-Jul-21 22:33N 30°06' W 093°17'0 0.0
2016-Jul-21 21:34N 30°06' W 093°17'0 0.0
2016-Jul-21 20:33N 30°06' W 093°17'0 0.0
2016-Jul-21 19:33N 30°06' W 093°17'0 0.0
2016-Jul-21 18:33N 30°06' W 093°17'0 0.0
2016-Jul-21 17:33N 30°06' W 093°17'0 0.0
2016-Jul-21 16:33N 30°06' W 093°17'0 0.0
2016-Jul-21 15:33N 30°06' W 093°17'0 0.0
2016-Jul-21 14:34N 30°06' W 093°17'0 0.0
2016-Jul-21 13:34N 30°06' W 093°17'0 0.0
2016-Jul-21 12:33N 30°06' W 093°17'0 0.0
2016-Jul-21 11:33N 30°06' W 093°17'0 0.0
2016-Jul-21 10:33N 30°06' W 093°17'1 0.7
2016-Jul-21 09:33N 30°07' W 093°18'0 0.0
2016-Jul-21 08:34N 30°07' W 093°18'0 0.0
2016-Jul-21 07:33N 30°07' W 093°18'0 0.0
2016-Jul-21 06:33N 30°07' W 093°18'0 0.0
2016-Jul-21 05:33N 30°07' W 093°18'0 0.0
2016-Jul-21 04:32N 30°07' W 093°18'0 0.0
2016-Jul-21 03:33N 30°07' W 093°18'0 0.0
2016-Jul-21 02:33N 30°07' W 093°18'0 0.0
2016-Jul-21 01:34N 30°07' W 093°18'0 0.0
2016-Jul-21 00:33N 30°07' W 093°18'0 0.0
2016-Jul-20 23:34N 30°07' W 093°18'0 0.0
2016-Jul-20 22:33N 30°07' W 093°18'1 0.7
2016-Jul-20 21:33N 30°06' W 093°17'0 0.0
2016-Jul-20 20:33N 30°06' W 093°17'0 0.0
2016-Jul-20 19:33N 30°06' W 093°17'0 0.0
2016-Jul-20 18:33N 30°06' W 093°17'0 0.0
2016-Jul-20 17:33N 30°06' W 093°17'0 0.0
2016-Jul-20 16:33N 30°06' W 093°17'0 0.0
2016-Jul-20 15:33N 30°06' W 093°17'0 0.0
2016-Jul-20 14:33N 30°06' W 093°17'0 0.0
2016-Jul-20 13:33N 30°06' W 093°17'0 0.0
2016-Jul-20 12:33N 30°06' W 093°17'0 0.0
2016-Jul-20 11:33N 30°06' W 093°17'0 0.0
2016-Jul-20 10:33N 30°06' W 093°17'0 0.0
2016-Jul-20 09:34N 30°06' W 093°17'0 0.0
2016-Jul-20 08:33N 30°06' W 093°17'0 0.0
2016-Jul-20 07:33N 30°06' W 093°17'0 0.0
2016-Jul-20 06:34N 30°06' W 093°17'0 0.0
2016-Jul-20 05:33N 30°06' W 093°17'0 0.0
2016-Jul-20 04:33N 30°06' W 093°17'0 0.0
2016-Jul-20 03:33N 30°06' W 093°17'0 0.0
2016-Jul-20 02:34N 30°06' W 093°17'0 0.0
2016-Jul-20 01:33N 30°06' W 093°17'0 0.0
2016-Jul-20 00:33N 30°06' W 093°17'0 0.0
2016-Jul-19 23:33N 30°06' W 093°17'0 0.0
2016-Jul-19 22:34N 30°06' W 093°17'0 0.0
2016-Jul-19 21:33N 30°06' W 093°17'0 0.0
2016-Jul-19 20:33N 30°06' W 093°17'0 0.0
2016-Jul-19 19:33N 30°06' W 093°17'0 0.0
2016-Jul-19 18:33N 30°06' W 093°17'0 0.0
2016-Jul-19 17:33N 30°06' W 093°17'1 0.7
2016-Jul-19 16:33N 30°07' W 093°18'0 0.0
2016-Jul-19 15:33N 30°07' W 093°18'1 0.7
2016-Jul-19 14:33N 30°06' W 093°17'0 0.0
2016-Jul-19 13:33N 30°06' W 093°17'0 0.0
2016-Jul-19 12:33N 30°06' W 093°17'1 0.7
2016-Jul-19 11:33N 30°07' W 093°18'0 0.0
2016-Jul-19 10:33N 30°07' W 093°18'0 0.0
2016-Jul-19 09:33N 30°07' W 093°18'0 0.0
2016-Jul-19 08:33N 30°07' W 093°18'0 0.0
2016-Jul-19 07:33N 30°07' W 093°18'0 0.0
2016-Jul-19 04:33N 30°07' W 093°18'0 0.0
2016-Jul-19 03:33N 30°07' W 093°18'0 0.0
2016-Jul-19 02:33N 30°07' W 093°18'0 0.0
2016-Jul-19 01:33N 30°07' W 093°18'0 0.0
2016-Jul-19 00:34N 30°07' W 093°18'0 0.0
2016-Jul-18 23:33N 30°07' W 093°18'0 0.0
2016-Jul-18 22:33N 30°07' W 093°18'0 0.0
2016-Jul-18 21:33N 30°07' W 093°18'0 0.0
2016-Jul-18 20:33N 30°07' W 093°18'0 0.0
2016-Jul-18 19:34N 30°07' W 093°18'0 0.0
2016-Jul-18 18:33N 30°07' W 093°18'0 0.0
2016-Jul-18 17:33N 30°07' W 093°18'0 0.0
2016-Jul-18 16:33N 30°07' W 093°18'0 0.0
2016-Jul-18 15:33N 30°07' W 093°18'0 0.0
2016-Jul-18 14:33N 30°07' W 093°18'0 0.0
2016-Jul-18 13:33N 30°07' W 093°18'0 0.0
2016-Jul-18 12:33N 30°07' W 093°18'0 0.0
2016-Jul-18 11:33N 30°07' W 093°18'0 0.0
2016-Jul-18 10:33N 30°07' W 093°18'2 2.3
2016-Jul-18 09:33N 30°05' W 093°17'5 5.4
2016-Jul-18 08:33N 29°60' W 093°13'6 6.2
2016-Jul-18 07:33N 29°56' W 093°08'6 6.3
2016-Jul-18 06:32N 29°56' W 093°01'6 5.9
2016-Jul-18 05:33N 29°57' W 092°54'30 5.7
2016-Jul-18 00:22N 29°51' W 092°20'4 5.4
2016-Jul-17 23:33N 29°49' W 092°16'4 3.7
2016-Jul-17 22:33N 29°47' W 092°12'1 1.3
2016-Jul-17 21:33N 29°47' W 092°11'6 6.0
2016-Jul-17 20:33N 29°48' W 092°04'6 6.5
2016-Jul-17 19:33N 29°50' W 091°57'  
Track history (hours):
 
Tides and Currents Weather Stations Pressure Air Temp Water Temp Dewpoint Dewpoint Depression Visibility Wind Speed Wind Dir Waves Ship Positions

Morgan Ray

Owner: Daigle Towing Service LLC., Belle Chasse, LA. More information available from US FCC via Universal Licensing System and Coast Guard Vessel Documentation Center.

Last reported at 2016-Jul-24 16:22 UTC. Time now 2016-Jul-24 22:24 UTC.
Position N 29°36' W 090°58'.

Length 20 m; draft 2 m.

Type: Tug. MMSI: 367470470.

Date/timePositionNaut miles runAvg speedWind from/ knotsBaromVisibWave heightAir tempDewpointWater temp
2016-Jul-24 16:22N 29°36' W 090°58'8 6.5
2016-Jul-24 15:05N 29°32' W 090°50'4 6.8
2016-Jul-24 14:33N 29°32' W 090°46'5 4.6
2016-Jul-24 13:34N 29°36' W 090°43'1 1.3
2016-Jul-24 12:33N 29°37' W 090°41'5 5.3
2016-Jul-24 11:33N 29°35' W 090°36'3 0.1
2016-Jul-23 08:04N 29°34' W 090°33'3 5.9
2016-Jul-23 07:31N 29°35' W 090°36'5 5.7
2016-Jul-23 06:33N 29°37' W 090°42'6 3.1
2016-Jul-23 04:33N 29°32' W 090°47'10 7.2
2016-Jul-23 03:11N 29°35' W 090°58'59 5.4
2016-Jul-22 16:17N 29°49' W 092°04'4 6.0
2016-Jul-22 15:33N 29°47' W 092°08'5 4.6
2016-Jul-22 14:33N 29°48' W 092°14'6 6.0
2016-Jul-22 13:32N 29°51' W 092°20'37 5.8
2016-Jul-22 07:13N 29°56' W 093°02'14 5.2
2016-Jul-22 04:33N 30°03' W 093°16'3 3.2
2016-Jul-22 03:33N 30°05' W 093°18'1 0.9
2016-Jul-22 02:34N 30°06' W 093°18'0 0.3
2016-Jul-22 01:34N 30°06' W 093°18'1 1.3
2016-Jul-22 00:34N 30°06' W 093°17'0 0.0
2016-Jul-21 23:33N 30°06' W 093°17'0 0.0
2016-Jul-21 22:33N 30°06' W 093°17'0 0.0
2016-Jul-21 21:34N 30°06' W 093°17'0 0.0
2016-Jul-21 20:33N 30°06' W 093°17'0 0.0
2016-Jul-21 19:33N 30°06' W 093°17'0 0.0
2016-Jul-21 18:33N 30°06' W 093°17'0 0.0
2016-Jul-21 17:33N 30°06' W 093°17'0 0.0
2016-Jul-21 16:33N 30°06' W 093°17'0 0.0
2016-Jul-21 15:33N 30°06' W 093°17'0 0.0
2016-Jul-21 14:34N 30°06' W 093°17'0 0.0
2016-Jul-21 13:34N 30°06' W 093°17'0 0.0
2016-Jul-21 12:33N 30°06' W 093°17'0 0.0
2016-Jul-21 11:33N 30°06' W 093°17'0 0.0
2016-Jul-21 10:33N 30°06' W 093°17'1 0.7
2016-Jul-21 09:33N 30°07' W 093°18'0 0.0
2016-Jul-21 08:34N 30°07' W 093°18'0 0.0
2016-Jul-21 07:33N 30°07' W 093°18'0 0.0
2016-Jul-21 06:33N 30°07' W 093°18'0 0.0
2016-Jul-21 05:33N 30°07' W 093°18'0 0.0
2016-Jul-21 04:32N 30°07' W 093°18'0 0.0
2016-Jul-21 03:33N 30°07' W 093°18'0 0.0
2016-Jul-21 02:33N 30°07' W 093°18'0 0.0
2016-Jul-21 01:34N 30°07' W 093°18'0 0.0
2016-Jul-21 00:33N 30°07' W 093°18'0 0.0
2016-Jul-20 23:34N 30°07' W 093°18'0 0.0
2016-Jul-20 22:33N 30°07' W 093°18'1 0.7
2016-Jul-20 21:33N 30°06' W 093°17'0 0.0
2016-Jul-20 20:33N 30°06' W 093°17'0 0.0
2016-Jul-20 19:33N 30°06' W 093°17'0 0.0
2016-Jul-20 18:33N 30°06' W 093°17'0 0.0
2016-Jul-20 17:33N 30°06' W 093°17'0 0.0
2016-Jul-20 16:33N 30°06' W 093°17'0 0.0
2016-Jul-20 15:33N 30°06' W 093°17'0 0.0
2016-Jul-20 14:33N 30°06' W 093°17'0 0.0
2016-Jul-20 13:33N 30°06' W 093°17'0 0.0
2016-Jul-20 12:33N 30°06' W 093°17'0 0.0
2016-Jul-20 11:33N 30°06' W 093°17'0 0.0
2016-Jul-20 10:33N 30°06' W 093°17'0 0.0
2016-Jul-20 09:34N 30°06' W 093°17'0 0.0
2016-Jul-20 08:33N 30°06' W 093°17'0 0.0
2016-Jul-20 07:33N 30°06' W 093°17'0 0.0
2016-Jul-20 06:34N 30°06' W 093°17'0 0.0
2016-Jul-20 05:33N 30°06' W 093°17'0 0.0
2016-Jul-20 04:33N 30°06' W 093°17'0 0.0
2016-Jul-20 03:33N 30°06' W 093°17'0 0.0
2016-Jul-20 02:34N 30°06' W 093°17'0 0.0
2016-Jul-20 01:33N 30°06' W 093°17'0 0.0
2016-Jul-20 00:33N 30°06' W 093°17'0 0.0
2016-Jul-19 23:33N 30°06' W 093°17'0 0.0
2016-Jul-19 22:34N 30°06' W 093°17'0 0.0
2016-Jul-19 21:33N 30°06' W 093°17'0 0.0
2016-Jul-19 20:33N 30°06' W 093°17'0 0.0
2016-Jul-19 19:33N 30°06' W 093°17'0 0.0
2016-Jul-19 18:33N 30°06' W 093°17'0 0.0
2016-Jul-19 17:33N 30°06' W 093°17'1 0.7
2016-Jul-19 16:33N 30°07' W 093°18'0 0.0
2016-Jul-19 15:33N 30°07' W 093°18'1 0.7
2016-Jul-19 14:33N 30°06' W 093°17'0 0.0
2016-Jul-19 13:33N 30°06' W 093°17'0 0.0
2016-Jul-19 12:33N 30°06' W 093°17'1 0.7
2016-Jul-19 11:33N 30°07' W 093°18'0 0.0
2016-Jul-19 10:33N 30°07' W 093°18'0 0.0
2016-Jul-19 09:33N 30°07' W 093°18'0 0.0
2016-Jul-19 08:33N 30°07' W 093°18'0 0.0
2016-Jul-19 07:33N 30°07' W 093°18'0 0.0
2016-Jul-19 04:33N 30°07' W 093°18'0 0.0
2016-Jul-19 03:33N 30°07' W 093°18'0 0.0
2016-Jul-19 02:33N 30°07' W 093°18'0 0.0
2016-Jul-19 01:33N 30°07' W 093°18'0 0.0
2016-Jul-19 00:34N 30°07' W 093°18'0 0.0
2016-Jul-18 23:33N 30°07' W 093°18'0 0.0
2016-Jul-18 22:33N 30°07' W 093°18'0 0.0
2016-Jul-18 21:33N 30°07' W 093°18'0 0.0
2016-Jul-18 20:33N 30°07' W 093°18'0 0.0
2016-Jul-18 19:34N 30°07' W 093°18'0 0.0
2016-Jul-18 18:33N 30°07' W 093°18'0 0.0
2016-Jul-18 17:33N 30°07' W 093°18'0 0.0
2016-Jul-18 16:33N 30°07' W 093°18'0 0.0
2016-Jul-18 15:33N 30°07' W 093°18'0 0.0
2016-Jul-18 14:33N 30°07' W 093°18'0 0.0
2016-Jul-18 13:33N 30°07' W 093°18'0 0.0
2016-Jul-18 12:33N 30°07' W 093°18'0 0.0
2016-Jul-18 11:33N 30°07' W 093°18'0 0.0
2016-Jul-18 10:33N 30°07' W 093°18'2 2.3
2016-Jul-18 09:33N 30°05' W 093°17'5 5.4
2016-Jul-18 08:33N 29°60' W 093°13'6 6.2
2016-Jul-18 07:33N 29°56' W 093°08'6 6.3
2016-Jul-18 06:32N 29°56' W 093°01'6 5.9
2016-Jul-18 05:33N 29°57' W 092°54'30 5.7
2016-Jul-18 00:22N 29°51' W 092°20'4 5.4
2016-Jul-17 23:33N 29°49' W 092°16'4 3.7
2016-Jul-17 22:33N 29°47' W 092°12'1 1.3
2016-Jul-17 21:33N 29°47' W 092°11'6 6.0
2016-Jul-17 20:33N 29°48' W 092°04'6 6.5
2016-Jul-17 19:33N 29°50' W 091°57'  

Dump ship's entire track history